Disclaimer

Please do not use the information listed here in-flight or in-navigation, as they are not provided to us by the airports but are provided by volunteers, so they might be outdated.

Search


Regions


Airport information page

Radio informations:
Melbourne Center - 122.0 MHz
Common traffic adv. frequency (CTAF) - 126.7 MHz

Airport informations:
Latitude: 30° 29' 06.00" S
Longitude: 136° 52' 36.00" E
Elevation: 343 feet - 105 meters
Operating hours: N/A
Operating agency: Private
Timezone: UTC+9:30(+10:30DT)
Fuel: Jet A1, without icing nhibitor.

100/130 MIL Spec, low lead, aviation gasoline (BLUE)

Runway information:
06/24 - 5220 x 98 feet< - >1591 x 30 meters

Recent METARs:
YOLD 141600Z AUTO 16013KT 9999 // NCD 18/10 Q1019
YOLD 141600Z AUTO 16013KT 9999 // NCD 18/10 Q1019
YOLD 141700Z AUTO 16014KT 9999 // NCD 17/10 Q1019

Airport on the map: